Time;durP1;ratioP1;P1;durP2;ratioP2;P2;SDS_P1;SDS_P2;PMS_P1;PMS_P2;Temp;Humidity;BMP_temperature;BMP_pressure;BME280_temperature;BME280_humidity;BME280_pressure;Samples;Min_cycle;Max_cycle;Signal;HPM_P1;HPM_P2
2022/06/30 00:00:21;;;;;;;3.55;2.78;;;;;;;19.02;75.00;94603.69;5091379;28;20631;-79
2022/06/30 00:02:48;;;;;;;4.90;3.10;;;;;;;19.06;75.00;94599.03;5091359;28;20676;-79
2022/06/30 00:05:15;;;;;;;4.28;2.70;;;;;;;18.98;75.80;94602.91;5091031;28;20248;-80
2022/06/30 00:07:42;;;;;;;6.75;3.00;;;;;;;19.03;75.90;94605.28;5091171;28;20214;-79
2022/06/30 00:10:10;;;;;;;4.65;3.22;;;;;;;19.02;76.09;94598.22;5091146;28;20222;-80
2022/06/30 00:12:37;;;;;;;4.88;2.60;;;;;;;18.98;76.61;94602.91;5091483;28;21018;-80
2022/06/30 00:15:06;;;;;;;4.20;2.80;;;;;;;18.90;77.12;94600.47;5091164;28;20287;-80
2022/06/30 00:17:33;;;;;;;3.40;2.38;;;;;;;18.73;78.02;94597.22;5091326;28;21074;-81
2022/06/30 00:20:00;;;;;;;6.53;3.20;;;;;;;18.63;78.52;94608.09;5091196;28;20198;-81
2022/06/30 00:22:27;;;;;;;4.90;3.00;;;;;;;18.55;78.52;94606.44;5091352;28;20614;-81
2022/06/30 00:24:54;;;;;;;5.03;2.47;;;;;;;18.55;78.58;94609.97;5090582;28;20293;-81
2022/06/30 00:27:21;;;;;;;5.55;2.90;;;;;;;18.41;78.86;94602.41;5091445;28;20627;-80
2022/06/30 00:29:48;;;;;;;4.78;4.00;;;;;;;18.43;78.60;94611.06;5091018;28;20259;-81
2022/06/30 00:32:16;;;;;;;4.72;2.92;;;;;;;18.38;78.85;94605.09;5091244;28;20218;-79
2022/06/30 00:34:43;;;;;;;4.82;3.15;;;;;;;18.51;77.99;94600.91;5091009;28;20205;-81
2022/06/30 00:37:10;;;;;;;5.65;3.38;;;;;;;18.61;77.99;94602.19;5090712;28;20225;-79
2022/06/30 00:39:37;;;;;;;4.82;2.85;;;;;;;18.73;77.40;94601.91;5091501;28;20306;-79
2022/06/30 00:42:05;;;;;;;6.30;3.70;;;;;;;18.75;77.73;94596.84;5091106;28;20307;-79
2022/06/30 00:44:32;;;;;;;4.15;2.67;;;;;;;18.71;77.80;94598.78;5091335;28;20547;-79
2022/06/30 00:47:00;;;;;;;3.83;2.83;;;;;;;18.70;77.54;94597.19;5091309;28;20225;-80
2022/06/30 00:49:29;;;;;;;4.03;3.03;;;;;;;18.70;77.79;94602.69;5091033;28;20597;-81
2022/06/30 00:51:56;;;;;;;4.95;2.60;;;;;;;18.69;78.08;94590.13;5091102;28;20194;-81
2022/06/30 00:54:25;;;;;;;4.40;2.60;;;;;;;18.64;78.43;94598.72;5090885;28;20214;-81
2022/06/30 00:56:53;;;;;;;5.47;4.30;;;;;;;18.64;78.10;94595.97;5090809;28;20195;-79
2022/06/30 00:59:22;;;;;;;5.65;3.10;;;;;;;18.65;77.55;94605.78;5090998;28;20206;-80
2022/06/30 01:01:50;;;;;;;5.78;3.15;;;;;;;18.62;77.92;94612.81;5090859;28;20233;-81
2022/06/30 01:04:19;;;;;;;5.57;2.88;;;;;;;18.59;77.78;94599.03;5090400;28;20209;-81
2022/06/30 01:06:48;;;;;;;4.38;3.22;;;;;;;18.61;78.00;94604.94;5090197;28;20746;-81
2022/06/30 01:12:41;;;;;;;4.03;2.80;;;;;;;18.40;79.67;94595.34;5090369;28;20646;-81
2022/06/30 01:14:49;;;;;;;4.22;3.03;;;;;;;18.27;80.41;94596.00;5090937;28;20326;-80
2022/06/30 01:17:16;;;;;;;7.13;3.92;;;;;;;18.22;80.67;94588.88;5090422;28;20363;-81
2022/06/30 01:19:52;;;;;;;4.45;2.83;;;;;;;18.23;81.05;94595.97;5090727;28;20378;-81
2022/06/30 01:22:20;;;;;;;3.67;2.88;;;;;;;18.24;81.04;94600.28;5077892;28;20238;-81
2022/06/30 01:24:47;;;;;;;4.60;3.53;;;;;;;18.26;80.88;94597.94;5090600;28;20291;-80
2022/06/30 01:27:14;;;;;;;5.32;3.45;;;;;;;18.27;80.53;94594.03;5090142;28;20215;-81
2022/06/30 01:29:41;;;;;;;5.60;3.38;;;;;;;18.26;80.81;94600.69;5090532;28;20205;-81
2022/06/30 01:32:08;;;;;;;5.32;4.15;;;;;;;18.25;80.53;94596.38;5090149;28;20210;-81
2022/06/30 01:34:35;;;;;;;4.72;3.35;;;;;;;18.28;79.93;94592.88;5090183;28;20295;-81
2022/06/30 01:37:02;;;;;;;5.50;2.90;;;;;;;18.30;80.40;94582.31;5090736;28;20256;-81
2022/06/30 01:39:31;;;;;;;8.63;3.05;;;;;;;18.34;80.50;94594.09;5074220;28;20235;-80
2022/06/30 01:41:58;;;;;;;4.45;3.00;;;;;;;18.27;80.71;94594.03;5079903;28;20701;-81
2022/06/30 01:44:24;;;;;;;5.20;3.55;;;;;;;18.21;80.91;94592.78;5091532;28;20214;-79
2022/06/30 01:46:52;;;;;;;6.65;3.90;;;;;;;18.13;81.08;94593.13;5091586;28;20218;-80
2022/06/30 01:49:19;;;;;;;5.38;3.35;;;;;;;18.03;81.13;94586.38;5093502;28;20612;-81
2022/06/30 01:51:46;;;;;;;7.55;3.40;;;;;;;18.04;81.12;94588.69;5094363;28;20645;-81
2022/06/30 01:54:13;;;;;;;4.55;3.10;;;;;;;18.07;81.13;94584.44;5094413;28;20626;-81
2022/06/30 01:56:42;;;;;;;7.15;3.60;;;;;;;18.09;80.57;94587.59;5093648;28;20206;-81
2022/06/30 01:59:08;;;;;;;6.15;3.20;;;;;;;18.22;80.37;94577.94;5094356;28;20247;-81
2022/06/30 02:01:35;;;;;;;5.47;3.50;;;;;;;18.19;79.92;94578.66;5094344;28;20287;-81
2022/06/30 02:06:43;;;;;;;3.63;2.95;;;;;;;18.00;81.08;94578.88;5093013;28;20194;-81
2022/06/30 02:09:10;;;;;;;9.43;3.50;;;;;;;17.97;80.61;94593.34;5093528;28;20206;-81
2022/06/30 02:11:37;;;;;;;4.97;3.17;;;;;;;17.79;81.02;94592.34;5093628;28;20313;-81
2022/06/30 02:14:06;;;;;;;5.05;3.25;;;;;;;17.84;80.94;94592.81;5080250;28;20218;-81
2022/06/30 02:16:33;;;;;;;7.57;3.15;;;;;;;17.92;80.63;94591.72;5093566;28;20198;-81
2022/06/30 02:18:59;;;;;;;4.88;2.90;;;;;;;17.93;80.80;94593.28;5093799;28;20267;-82
2022/06/30 02:21:26;;;;;;;3.28;2.75;;;;;;;18.00;80.98;94593.38;5093846;28;20229;-81
2022/06/30 02:23:53;;;;;;;6.07;3.45;;;;;;;18.00;81.37;94595.34;5093616;28;20378;-80
2022/06/30 02:26:20;;;;;;;5.97;3.10;;;;;;;18.03;81.40;94592.63;5093319;28;20774;-81
2022/06/30 02:28:47;;;;;;;11.07;3.58;;;;;;;17.85;81.97;94590.84;5092737;28;20774;-81
2022/06/30 02:31:15;;;;;;;7.80;3.78;;;;;;;17.72;82.50;94599.31;5093677;28;20309;-81
2022/06/30 02:33:43;;;;;;;5.88;3.10;;;;;;;17.80;82.78;94593.91;5093292;28;20288;-81
2022/06/30 02:36:09;;;;;;;7.30;3.65;;;;;;;17.76;82.50;94604.84;5093319;28;20210;-81
2022/06/30 02:38:36;;;;;;;6.65;3.55;;;;;;;17.74;82.98;94602.50;5092744;28;20722;-81
2022/06/30 02:41:03;;;;;;;6.32;3.63;;;;;;;17.75;82.68;94609.56;5093023;28;20276;-81
2022/06/30 02:43:30;;;;;;;5.40;3.08;;;;;;;17.65;82.19;94604.72;5093299;28;20284;-81
2022/06/30 02:45:57;;;;;;;5.50;3.30;;;;;;;17.62;82.57;94605.44;5093122;28;20279;-80
2022/06/30 02:48:25;;;;;;;6.18;3.17;;;;;;;17.71;82.24;94603.22;5092898;28;20202;-80
2022/06/30 02:50:52;;;;;;;3.22;2.78;;;;;;;17.74;82.33;94602.50;5092976;28;20287;-81
2022/06/30 02:53:18;;;;;;;6.20;3.55;;;;;;;17.74;82.17;94607.97;5093288;28;20195;-81
2022/06/30 02:55:45;;;;;;;6.63;3.58;;;;;;;17.81;82.06;94606.47;5093115;28;20712;-80
2022/06/30 02:58:12;;;;;;;3.97;2.65;;;;;;;17.82;82.00;94606.09;5092365;28;20244;-80
2022/06/30 03:00:39;;;;;;;6.90;3.65;;;;;;;17.77;81.83;94607.19;5092425;28;20256;-80
2022/06/30 03:03:05;;;;;;;4.95;3.17;;;;;;;17.92;82.29;94613.63;5092763;28;20218;-80
2022/06/30 03:05:34;;;;;;;4.22;3.08;;;;;;;18.19;81.47;94606.09;5092614;28;20214;-80
2022/06/30 03:08:00;;;;;;;4.13;3.00;;;;;;;18.70;80.06;94602.69;5092050;28;20248;-80
2022/06/30 03:10:27;;;;;;;7.00;3.20;;;;;;;19.21;78.22;94599.13;5092508;28;20218;-80
2022/06/30 03:12:54;;;;;;;5.68;3.38;;;;;;;19.85;75.71;94595.53;5092261;28;20226;-80
2022/06/30 03:15:21;;;;;;;5.95;4.20;;;;;;;20.60;73.44;94594.97;5092543;28;20248;-80
2022/06/30 03:17:47;;;;;;;4.75;3.42;;;;;;;21.25;70.31;94584.31;5092458;28;20226;-80
2022/06/30 03:20:14;;;;;;;7.68;3.30;;;;;;;22.02;67.37;94578.16;5092040;28;20699;-80
2022/06/30 03:22:42;;;;;;;5.13;3.10;;;;;;;22.64;65.21;94575.44;5091851;28;20709;-80
2022/06/30 03:25:09;;;;;;;4.47;3.00;;;;;;;23.34;62.89;94574.06;5092539;28;20275;-80
2022/06/30 03:27:36;;;;;;;4.07;3.15;;;;;;;23.40;62.41;94572.41;5092032;28;20215;-80
2022/06/30 03:30:03;;;;;;;4.07;3.08;;;;;;;24.18;60.46;94575.47;5091832;28;20555;-80
2022/06/30 03:32:30;;;;;;;4.72;3.22;;;;;;;24.75;58.88;94576.22;5091705;28;20271;-80
2022/06/30 03:34:57;;;;;;;6.47;4.13;;;;;;;25.10;57.89;94569.38;5091904;28;20282;-80
2022/06/30 03:37:24;;;;;;;4.05;3.25;;;;;;;26.12;54.45;94571.38;5091964;28;20276;-80
2022/06/30 03:39:52;;;;;;;5.40;3.75;;;;;;;26.69;52.29;94570.16;5091584;28;20206;-79
2022/06/30 03:42:19;;;;;;;5.90;4.82;;;;;;;27.11;51.36;94567.59;5091644;28;20569;-80
2022/06/30 03:44:45;;;;;;;5.53;4.30;;;;;;;27.18;51.06;94573.78;5091895;28;20218;-80
2022/06/30 03:47:12;;;;;;;4.13;3.00;;;;;;;27.96;49.27;94570.91;5091746;28;21053;-80
2022/06/30 03:49:39;;;;;;;5.95;3.38;;;;;;;27.67;49.12;94575.72;5091564;28;20225;-80
2022/06/30 03:52:06;;;;;;;4.30;3.05;;;;;;;27.41;49.53;94578.34;5092288;28;20263;-80
2022/06/30 03:54:33;;;;;;;5.03;3.90;;;;;;;26.81;50.82;94569.47;5071560;28;20199;-80
2022/06/30 03:57:01;;;;;;;5.68;4.45;;;;;;;27.45;49.97;94569.91;5085356;28;20259;-80
2022/06/30 03:59:28;;;;;;;4.88;4.20;;;;;;;28.04;48.86;94572.25;5091719;28;20567;-80
2022/06/30 04:01:55;;;;;;;7.32;4.22;;;;;;;28.68;47.26;94570.41;5091572;28;20233;-80
2022/06/30 04:04:22;;;;;;;6.53;4.88;;;;;;;29.20;45.85;94569.16;5091357;28;20214;-80
2022/06/30 04:06:49;;;;;;;8.50;4.47;;;;;;;28.91;46.28;94572.09;5091860;28;20218;-80
2022/06/30 04:09:16;;;;;;;6.75;5.10;;;;;;;29.87;44.40;94569.63;5091406;28;20267;-80
2022/06/30 04:11:42;;;;;;;6.68;5.00;;;;;;;30.84;42.33;94567.63;5090690;28;20218;-85
2022/06/30 04:14:10;;;;;;;8.70;5.35;;;;;;;30.55;42.45;94573.56;5090209;28;20483;-77
2022/06/30 04:16:37;;;;;;;5.88;4.97;;;;;;;30.58;42.22;94577.44;5091905;28;20287;-83
2022/06/30 04:19:04;;;;;;;8.18;4.97;;;;;;;30.52;41.71;94568.06;5092016;28;20283;-86
2022/06/30 04:21:31;;;;;;;5.82;4.80;;;;;;;31.14;41.36;94579.25;5091571;28;20237;-79
2022/06/30 04:23:58;;;;;;;6.70;4.53;;;;;;;32.22;39.71;94577.84;5091053;28;20259;-80
2022/06/30 04:26:25;;;;;;;5.80;5.05;;;;;;;31.75;39.98;94570.66;5090978;28;20235;-80
2022/06/30 04:28:51;;;;;;;6.68;5.07;;;;;;;32.04;38.81;94572.22;5091485;28;20340;-82
2022/06/30 04:34:04;;;;;;;6.22;5.30;;;;;;;32.62;38.19;94576.84;5091340;28;20347;-82
2022/06/30 04:36:31;;;;;;;9.20;5.45;;;;;;;31.92;39.29;94564.75;5091654;28;20218;-83
2022/06/30 04:38:57;;;;;;;8.48;5.85;;;;;;;31.29;39.80;94574.66;5091554;28;20198;-83
2022/06/30 04:41:23;;;;;;;6.80;5.35;;;;;;;29.95;42.44;94575.75;5091271;28;20248;-81
2022/06/30 04:43:50;;;;;;;6.57;5.03;;;;;;;30.42;42.81;94580.44;5091245;28;20623;-81
2022/06/30 04:46:17;;;;;;;8.15;5.03;;;;;;;30.71;41.34;94587.31;5090546;28;20202;-81
2022/06/30 04:48:45;;;;;;;5.85;4.75;;;;;;;31.33;39.49;94581.63;5090772;28;20226;-82
2022/06/30 04:51:12;;;;;;;5.88;5.28;;;;;;;32.19;39.10;94581.59;5090725;28;20614;-82
2022/06/30 04:53:40;;;;;;;7.22;5.70;;;;;;;31.73;39.42;94581.56;5091463;28;20202;-82
2022/06/30 04:56:07;;;;;;;5.82;4.80;;;;;;;31.35;39.76;94589.56;5090961;28;20207;-83
2022/06/30 04:58:34;;;;;;;5.20;4.65;;;;;;;31.90;38.06;94589.66;5091014;28;20703;-83
2022/06/30 05:01:02;;;;;;;6.68;5.07;;;;;;;32.55;37.20;94579.94;5092670;28;20218;-82
2022/06/30 05:03:29;;;;;;;6.07;4.80;;;;;;;32.84;36.53;94580.22;5092485;28;20268;-82
2022/06/30 05:05:57;;;;;;;9.80;5.18;;;;;;;34.32;34.55;94574.00;5090583;28;20778;-82
2022/06/30 05:08:24;;;;;;;5.82;4.78;;;;;;;34.66;33.58;94574.59;5088064;28;20215;-82
2022/06/30 05:10:50;;;;;;;6.50;4.22;;;;;;;33.79;34.15;94588.78;5090445;28;20679;-82
2022/06/30 05:13:17;;;;;;;5.82;4.80;;;;;;;34.30;34.32;94581.38;5091025;28;20230;-81
2022/06/30 05:15:45;;;;;;;5.43;4.45;;;;;;;34.57;34.20;94595.97;5089484;28;20221;-82
2022/06/30 05:18:12;;;;;;;4.93;4.50;;;;;;;36.00;31.79;94579.44;5089759;28;20329;-83
2022/06/30 05:20:39;;;;;;;5.65;4.57;;;;;;;35.03;32.12;94589.81;5089701;28;20198;-82
2022/06/30 05:23:08;;;;;;;5.20;4.50;;;;;;;34.00;33.88;94592.53;5092370;28;20271;-83
2022/06/30 05:28:21;;;;;;;5.22;4.43;;;;;;;34.97;32.53;94591.78;5093703;28;20228;-83
2022/06/30 05:30:48;;;;;;;6.13;4.50;;;;;;;34.55;33.26;94595.66;5093598;28;20226;-83
2022/06/30 05:33:15;;;;;;;9.20;6.40;;;;;;;35.57;32.54;94587.56;5093180;28;20761;-83
2022/06/30 05:35:42;;;;;;;9.73;6.88;;;;;;;35.86;32.01;94595.94;5094215;28;20282;-82
2022/06/30 05:38:10;;;;;;;6.07;4.85;;;;;;;35.03;32.78;94592.63;5094822;28;20295;-84
2022/06/30 05:40:37;;;;;;;6.40;5.22;;;;;;;34.09;33.81;94600.13;5094402;28;20218;-83
2022/06/30 05:43:04;;;;;;;7.13;5.55;;;;;;;34.33;34.14;94603.69;5093994;28;20236;-82
2022/06/30 05:45:31;;;;;;;7.18;4.57;;;;;;;34.82;33.46;94607.91;5093873;28;20260;-83
2022/06/30 05:47:57;;;;;;;5.43;4.60;;;;;;;35.20;32.90;94602.13;5094217;28;20202;-83
2022/06/30 05:50:24;;;;;;;7.05;4.40;;;;;;;35.51;32.07;94614.91;5094390;28;20256;-82
2022/06/30 05:52:51;;;;;;;6.55;4.78;;;;;;;34.85;33.20;94610.50;5094045;28;20702;-82
2022/06/30 05:55:20;;;;;;;5.75;4.63;;;;;;;36.32;31.85;94603.69;5094624;28;20203;-81
2022/06/30 05:57:54;;;;;;;7.10;5.40;;;;;;;37.22;30.14;94610.97;5094269;28;20222;-82
2022/06/30 06:00:24;;;;;;;5.68;5.13;;;;;;;35.94;32.03;94608.34;5094072;28;20638;-83
2022/06/30 06:02:51;;;;;;;7.68;5.65;;;;;;;35.57;32.83;94618.56;5094114;28;20275;-83
2022/06/30 06:05:18;;;;;;;5.90;5.18;;;;;;;36.98;30.40;94614.09;5093666;28;20232;-82
2022/06/30 06:07:45;;;;;;;5.35;4.85;;;;;;;36.32;31.33;94620.63;5094133;28;20837;-82
2022/06/30 06:10:13;;;;;;;7.22;5.45;;;;;;;35.74;32.79;94616.75;5093222;28;20193;-80
2022/06/30 06:12:47;;;;;;;6.57;5.00;;;;;;;36.03;31.98;94612.28;5088495;28;20305;-84
2022/06/30 06:15:17;;;;;;;5.80;5.20;;;;;;;35.28;33.70;94613.78;5091505;28;20684;-84
2022/06/30 06:17:45;;;;;;;8.90;4.88;;;;;;;36.05;32.26;94613.34;5102622;28;20209;-82
2022/06/30 06:20:15;;;;;;;5.63;4.85;;;;;;;36.24;31.60;94622.31;5098440;28;20206;-84
2022/06/30 06:22:43;;;;;;;5.45;4.88;;;;;;;36.23;32.23;94615.13;5097999;28;20269;-82
2022/06/30 06:25:10;;;;;;;5.07;4.60;;;;;;;35.50;32.59;94621.81;5094138;28;20663;-82
2022/06/30 06:27:38;;;;;;;5.68;5.10;;;;;;;34.49;33.65;94633.38;5094541;28;20237;-78
2022/06/30 06:30:09;;;;;;;7.20;5.07;;;;;;;35.12;33.19;94619.94;5093442;28;20631;-79
2022/06/30 06:32:36;;;;;;;5.53;4.80;;;;;;;34.74;33.81;94617.97;5093736;28;20218;-81
2022/06/30 06:35:05;;;;;;;6.85;5.53;;;;;;;35.63;32.21;94608.16;5092333;28;20222;-78
2022/06/30 06:37:32;;;;;;;5.85;5.20;;;;;;;36.99;30.41;94616.44;5093897;28;20200;-78
2022/06/30 06:39:59;;;;;;;5.50;4.85;;;;;;;36.00;31.49;94610.44;5073151;28;20292;-78
2022/06/30 06:42:25;;;;;;;6.65;5.13;;;;;;;35.58;32.16;94608.84;5087187;28;20222;-83
2022/06/30 06:44:52;;;;;;;5.50;4.65;;;;;;;37.11;30.89;94600.34;5092564;28;20226;-84
2022/06/30 06:47:20;;;;;;;8.25;5.57;;;;;;;36.65;30.74;94601.19;5093428;28;20198;-85
2022/06/30 06:49:47;;;;;;;7.38;5.32;;;;;;;37.31;31.17;94600.25;5093600;28;20217;-80
2022/06/30 06:52:14;;;;;;;6.95;5.32;;;;;;;36.43;30.97;94603.81;5095047;28;20609;-89
2022/06/30 06:54:41;;;;;;;6.15;4.68;;;;;;;36.38;32.18;94607.34;5094959;28;20617;-88
2022/06/30 06:57:08;;;;;;;6.38;5.43;;;;;;;36.84;30.57;94598.06;5096018;28;20242;-87
2022/06/30 06:59:37;;;;;;;4.80;4.30;;;;;;;36.62;31.75;94602.22;5095672;28;20218;-85
2022/06/30 07:02:05;;;;;;;5.50;5.00;;;;;;;35.94;32.04;94601.94;5095093;28;20226;-81
2022/06/30 07:04:33;;;;;;;6.65;4.85;;;;;;;35.40;32.58;94600.66;5093800;28;20222;-80
2022/06/30 07:07:00;;;;;;;5.80;4.80;;;;;;;35.40;33.29;94595.03;5082169;28;20287;-79
2022/06/30 07:09:27;;;;;;;5.55;4.90;;;;;;;35.28;32.97;94592.03;5080638;28;20769;-83
2022/06/30 07:11:53;;;;;;;6.95;4.68;;;;;;;35.56;33.00;94594.47;5092050;28;20275;-84
2022/06/30 07:14:20;;;;;;;6.28;4.55;;;;;;;35.70;32.19;94590.03;5092151;28;20280;-83
2022/06/30 07:16:48;;;;;;;7.90;5.20;;;;;;;33.62;35.40;94596.09;5092064;28;20214;-84
2022/06/30 07:19:15;;;;;;;6.53;4.97;;;;;;;33.30;36.32;94599.69;5092565;28;20226;-84
2022/06/30 07:21:43;;;;;;;5.90;5.05;;;;;;;34.32;35.25;94596.50;5091741;28;20603;-84
2022/06/30 07:24:11;;;;;;;5.68;4.88;;;;;;;34.48;33.43;94598.06;5092441;28;20340;-80
2022/06/30 07:26:38;;;;;;;7.90;4.82;;;;;;;36.47;31.53;94581.78;5091904;28;20320;-82
2022/06/30 07:29:05;;;;;;;5.80;4.78;;;;;;;37.47;29.36;94575.44;5091251;28;20190;-83
2022/06/30 07:31:32;;;;;;;5.30;4.78;;;;;;;38.10;29.03;94576.06;5092069;28;20252;-82
2022/06/30 07:33:58;;;;;;;6.85;5.00;;;;;;;38.09;29.39;94587.88;5091757;28;20222;-82
2022/06/30 07:36:25;;;;;;;5.75;4.47;;;;;;;37.80;29.41;94592.63;5090612;28;20268;-83
2022/06/30 07:38:54;;;;;;;8.13;4.93;;;;;;;38.14;28.54;94592.78;5090837;28;20539;-83
2022/06/30 07:41:20;;;;;;;6.28;4.40;;;;;;;37.24;31.56;94597.91;5091485;28;20222;-91
2022/06/30 07:43:47;;;;;;;5.90;4.43;;;;;;;35.22;32.09;94593.19;5092514;28;20279;-83
2022/06/30 07:46:15;;;;;;;5.85;4.25;;;;;;;32.73;35.10;94599.59;5091330;28;20198;-86
2022/06/30 07:48:42;;;;;;;7.20;4.45;;;;;;;31.89;35.90;94604.94;5092624;28;20289;-81
2022/06/30 07:51:09;;;;;;;6.35;4.53;;;;;;;31.93;36.88;94605.56;5091607;28;20641;-82
2022/06/30 07:53:36;;;;;;;5.63;4.47;;;;;;;32.25;35.75;94599.34;5092033;28;20236;-85
2022/06/30 07:56:05;;;;;;;6.43;4.47;;;;;;;32.41;36.47;94598.22;5091560;28;20586;-79
2022/06/30 07:58:33;;;;;;;5.82;4.50;;;;;;;33.34;35.01;94589.06;5091816;28;20283;-83
2022/06/30 08:01:00;;;;;;;6.28;5.20;;;;;;;33.52;35.07;94586.91;5092401;28;20249;-83
2022/06/30 08:03:26;;;;;;;5.53;4.18;;;;;;;34.27;34.37;94583.13;5091889;28;20312;-85
2022/06/30 08:05:53;;;;;;;6.80;5.07;;;;;;;33.40;36.63;94590.72;5092142;28;20221;-83
2022/06/30 08:08:20;;;;;;;5.93;4.50;;;;;;;33.07;36.17;94587.94;5091595;28;20255;-84
2022/06/30 08:10:47;;;;;;;6.43;4.57;;;;;;;32.73;36.40;94594.75;5092219;28;20222;-84
2022/06/30 08:13:16;;;;;;;7.38;5.22;;;;;;;31.99;38.41;94586.84;5091281;28;20233;-79
2022/06/30 08:15:42;;;;;;;8.60;5.40;;;;;;;31.26;40.01;94589.56;5079508;28;20213;-85
2022/06/30 08:18:09;;;;;;;7.88;4.70;;;;;;;32.23;38.36;94590.63;5091453;28;20283;-81
2022/06/30 08:20:36;;;;;;;7.60;5.78;;;;;;;32.72;38.28;94581.19;5077973;28;20206;-86
2022/06/30 08:23:03;;;;;;;6.32;5.00;;;;;;;33.06;37.85;94572.34;5092133;28;20222;-85
2022/06/30 08:25:30;;;;;;;8.15;5.50;;;;;;;32.27;38.45;94585.63;5078589;28;20318;-87
2022/06/30 08:27:57;;;;;;;7.40;5.30;;;;;;;33.13;37.31;94571.97;5092220;28;20221;-83
2022/06/30 08:30:25;;;;;;;6.95;5.40;;;;;;;33.25;36.87;94572.25;5092626;28;20654;-87
2022/06/30 08:32:52;;;;;;;9.63;5.88;;;;;;;33.21;38.17;94574.44;5092773;28;20218;-84
2022/06/30 08:35:20;;;;;;;7.55;5.28;;;;;;;33.49;35.72;94581.47;5092204;28;20237;-87
2022/06/30 08:37:47;;;;;;;7.72;5.50;;;;;;;33.54;36.08;94578.78;5092207;28;20202;-83
2022/06/30 08:42:59;;;;;;;7.35;4.65;;;;;;;33.09;35.77;94590.22;5091839;28;20290;-84
2022/06/30 08:45:29;;;;;;;9.07;4.13;;;;;;;33.04;35.22;94588.09;5091976;28;20570;-85
2022/06/30 08:47:57;;;;;;;6.03;4.57;;;;;;;32.49;36.38;94586.22;5091883;28;20236;-82
2022/06/30 08:50:24;;;;;;;11.23;4.82;;;;;;;31.68;36.04;94590.59;5092092;28;20202;-85
2022/06/30 08:52:52;;;;;;;7.03;4.80;;;;;;;32.39;36.85;94593.06;5091605;28;20226;-84
2022/06/30 08:55:24;;;;;;;6.07;4.68;;;;;;;31.77;36.58;94593.41;5091886;28;20218;-82
2022/06/30 08:57:52;;;;;;;7.00;5.05;;;;;;;32.61;34.48;94587.28;5095096;28;20701;-86
2022/06/30 09:00:19;;;;;;;9.30;4.40;;;;;;;33.16;34.14;94582.25;5095940;28;20221;-86
2022/06/30 09:02:47;;;;;;;6.63;4.18;;;;;;;33.39;35.49;94574.34;5095381;28;20222;-85
2022/06/30 09:05:15;;;;;;;5.05;4.22;;;;;;;32.52;36.02;94583.72;5095935;28;20321;-86
2022/06/30 09:07:42;;;;;;;7.30;4.13;;;;;;;32.22;36.08;94586.25;5095027;28;20789;-85
2022/06/30 09:10:09;;;;;;;6.47;4.50;;;;;;;32.20;35.94;94583.16;5095437;28;20198;-85
2022/06/30 09:12:36;;;;;;;5.72;4.40;;;;;;;31.68;36.69;94576.59;5094838;28;20224;-86
2022/06/30 09:15:04;;;;;;;8.60;4.05;;;;;;;31.43;37.60;94579.66;5095295;28;20267;-78
2022/06/30 09:17:31;;;;;;;6.75;4.55;;;;;;;31.67;37.21;94577.84;5094783;28;20243;-86
2022/06/30 09:20:01;;;;;;;6.53;4.25;;;;;;;32.35;36.64;94569.25;5094524;28;20226;-89
2022/06/30 09:22:30;;;;;;;7.03;4.80;;;;;;;32.11;38.06;94567.09;5095097;28;20206;-87
2022/06/30 09:24:59;;;;;;;6.60;5.18;;;;;;;31.58;36.65;94563.78;5094445;28;20246;-88
2022/06/30 09:27:37;;;;;;;7.13;4.50;;;;;;;32.32;35.61;94565.38;5094985;28;20744;-87
2022/06/30 09:30:09;;;;;;;6.00;4.60;;;;;;;32.66;35.03;94555.00;5095517;28;20305;-86
2022/06/30 09:32:45;;;;;;;7.35;4.45;;;;;;;33.17;36.24;94555.72;5094827;28;20229;-86
2022/06/30 09:35:14;;;;;;;6.63;4.53;;;;;;;32.79;34.54;94550.00;5081776;28;20190;-85
2022/06/30 09:37:41;;;;;;;6.63;4.43;;;;;;;32.97;36.00;94555.50;5095243;28;20218;-86
2022/06/30 09:40:09;;;;;;;5.28;4.38;;;;;;;33.04;34.42;94558.00;5095635;28;20198;-84
2022/06/30 09:42:42;;;;;;;6.13;4.78;;;;;;;32.10;37.21;94553.53;5094042;28;20206;-85
2022/06/30 09:45:11;;;;;;;5.70;4.47;;;;;;;31.58;36.36;94563.78;5094814;28;20226;-82
2022/06/30 09:47:51;;;;;;;6.13;4.43;;;;;;;31.18;37.60;94563.09;5094910;28;20199;-83
2022/06/30 09:50:20;;;;;;;10.25;4.50;;;;;;;31.43;38.26;94555.19;5094408;28;20225;-85
2022/06/30 09:53:03;;;;;;;6.13;4.43;;;;;;;32.17;36.87;94558.81;5094650;28;20279;-87
2022/06/30 09:55:38;;;;;;;5.63;4.40;;;;;;;32.08;36.08;94556.03;5094615;28;20194;-86
2022/06/30 09:58:05;;;;;;;5.57;4.13;;;;;;;32.10;38.34;94564.75;5095359;28;20308;-83
2022/06/30 10:00:43;;;;;;;5.45;3.60;;;;;;;31.48;36.01;94551.00;5094075;28;20222;-87
2022/06/30 10:03:10;;;;;;;6.35;3.70;;;;;;;31.80;36.60;94558.06;5094753;28;20255;-83
2022/06/30 10:05:43;;;;;;;5.45;3.80;;;;;;;31.60;36.38;94554.91;5094214;28;20355;-86
2022/06/30 10:08:11;;;;;;;4.18;3.75;;;;;;;31.72;37.32;94546.38;5093747;28;20688;-87
2022/06/30 10:10:38;;;;;;;6.13;4.07;;;;;;;31.69;35.63;94547.34;5094885;28;20574;-79
2022/06/30 10:13:06;;;;;;;6.75;3.95;;;;;;;31.67;36.98;94547.03;5094797;28;20225;-85
2022/06/30 10:15:37;;;;;;;4.70;3.67;;;;;;;31.48;36.22;94537.00;5093661;28;20229;-83
2022/06/30 10:18:05;;;;;;;5.95;3.70;;;;;;;30.95;37.05;94544.81;5094270;28;20222;-84
2022/06/30 10:20:38;;;;;;;6.85;3.85;;;;;;;30.93;37.08;94548.06;5080441;28;20202;-86
2022/06/30 10:23:08;;;;;;;5.07;3.50;;;;;;;31.34;37.16;94537.63;5094970;28;20621;-84
2022/06/30 10:25:36;;;;;;;6.60;3.90;;;;;;;31.56;35.91;94538.28;5098069;28;20284;-85
2022/06/30 10:28:03;;;;;;;3.65;2.60;;;;;;;31.65;34.24;94541.09;5099253;28;20283;-84
2022/06/30 10:30:40;;;;;;;5.88;2.90;;;;;;;32.52;33.03;94533.22;5095047;28;20290;-85
2022/06/30 10:33:14;;;;;;;3.95;2.83;;;;;;;32.55;32.24;94529.47;5094184;28;20248;-80
2022/06/30 10:35:45;;;;;;;3.28;2.80;;;;;;;32.37;32.37;94527.50;5094385;28;20224;-82
2022/06/30 10:38:23;;;;;;;3.92;2.90;;;;;;;32.06;32.32;94524.88;5093835;28;20218;-84
2022/06/30 10:40:56;;;;;;;3.05;2.50;;;;;;;32.26;31.25;94527.97;5093977;28;20606;-86
2022/06/30 10:43:22;;;;;;;3.88;2.72;;;;;;;32.66;33.03;94524.13;5079609;28;20604;-83
2022/06/30 10:46:00;;;;;;;2.53;2.33;;;;;;;33.03;30.86;94508.69;5088839;28;20277;-84
2022/06/30 10:48:29;;;;;;;5.07;2.55;;;;;;;32.45;31.46;94507.06;5093642;28;20225;-83
2022/06/30 10:50:57;;;;;;;3.13;2.45;;;;;;;32.70;32.88;94510.69;5093058;28;20255;-84
2022/06/30 10:53:50;;;;;;;5.65;2.85;;;;;;;31.76;34.50;94519.00;5093464;28;20202;-83
2022/06/30 10:56:18;;;;;;;2.90;2.58;;;;;;;31.12;35.59;94522.97;5080518;28;20254;-84
2022/06/30 10:59:11;;;;;;;3.40;2.30;;;;;;;31.29;33.79;94507.44;5092954;28;20895;-82
2022/06/30 11:01:39;;;;;;;2.72;2.53;;;;;;;31.55;36.11;94511.50;5093424;28;20190;-87
2022/06/30 11:04:07;;;;;;;3.25;2.90;;;;;;;31.60;36.91;94513.66;5093125;28;20250;-83
2022/06/30 11:07:10;;;;;;;2.90;2.60;;;;;;;31.50;34.60;94503.72;5092904;28;20256;-87
2022/06/30 11:10:06;;;;;;;3.00;2.65;;;;;;;32.29;34.14;94493.38;5083122;28;20251;-86
2022/06/30 11:12:58;;;;;;;3.55;2.90;;;;;;;32.04;33.07;94493.75;5080349;28;20309;-81
2022/06/30 11:15:54;;;;;;;3.45;2.63;;;;;;;31.75;34.46;94494.25;5093180;28;20213;-85
2022/06/30 11:18:22;;;;;;;3.03;2.58;;;;;;;32.10;34.76;94491.88;5093706;28;20226;-86
2022/06/30 11:20:51;;;;;;;2.97;2.53;;;;;;;32.13;34.41;94479.69;5092403;28;20222;-85
2022/06/30 11:23:20;;;;;;;2.70;2.50;;;;;;;32.55;34.54;94478.97;5092760;28;20295;-84
2022/06/30 11:28:39;;;;;;;2.80;2.60;;;;;;;32.37;32.63;94477.81;5092418;28;20248;-87
2022/06/30 11:31:21;;;;;;;3.08;2.67;;;;;;;33.02;33.36;94465.03;5092877;28;20198;-86
2022/06/30 11:33:53;;;;;;;3.35;2.83;;;;;;;33.17;33.60;94465.09;5093227;28;20304;-86
2022/06/30 11:36:20;;;;;;;2.92;2.38;;;;;;;31.61;34.13;94467.59;5092326;28;20697;-83
2022/06/30 11:38:53;;;;;;;3.70;2.47;;;;;;;32.17;35.53;94471.13;5093309;28;20210;-87
2022/06/30 11:44:09;;;;;;;2.78;2.50;;;;;;;32.57;34.80;94456.81;5093479;28;20348;-79
2022/06/30 11:46:51;;;;;;;2.78;2.50;;;;;;;31.97;33.72;94464.03;5084527;28;20304;-82
2022/06/30 11:49:18;;;;;;;3.15;2.38;;;;;;;32.05;33.87;94456.06;5089226;28;20287;-85
2022/06/30 11:51:45;;;;;;;3.35;2.42;;;;;;;32.27;35.02;94467.84;5092250;28;20202;-79
2022/06/30 11:54:13;;;;;;;3.10;2.60;;;;;;;32.55;34.21;94454.50;5091975;28;20241;-85
2022/06/30 11:56:51;;;;;;;2.38;2.17;;;;;;;32.82;35.27;94462.81;5092018;28;20770;-83
2022/06/30 11:59:18;;;;;;;3.40;2.50;;;;;;;32.83;34.39;94463.56;5092348;28;20230;-85